createdAt,value
2018-12-26T00:02:03.044Z,34.60
2018-12-26T00:04:30.552Z,32.83
2018-12-26T00:06:58.066Z,31.70
2018-12-26T00:09:25.561Z,28.80
2018-12-26T00:11:53.034Z,29.20
2018-12-26T00:14:20.581Z,30.07
2018-12-26T00:16:48.055Z,28.80
2018-12-26T00:19:15.572Z,26.90
2018-12-26T00:21:43.098Z,29.23
2018-12-26T00:24:10.640Z,27.30
2018-12-26T00:26:38.124Z,30.27
2018-12-26T00:29:05.648Z,35.17
2018-12-26T00:31:33.192Z,36.50
2018-12-26T00:34:00.755Z,42.67
2018-12-26T00:36:28.259Z,49.60
2018-12-26T00:38:55.836Z,74.80
2018-12-26T00:41:23.362Z,69.03
2018-12-26T00:43:50.865Z,74.90
2018-12-26T00:46:18.601Z,72.07
2018-12-26T00:48:46.112Z,82.20
2018-12-26T00:51:13.586Z,73.80
2018-12-26T00:53:41.098Z,80.10
2018-12-26T00:56:10.586Z,72.43
2018-12-26T00:58:38.168Z,84.80
2018-12-26T01:01:05.657Z,70.33
2018-12-26T01:03:33.185Z,60.07
2018-12-26T01:06:00.654Z,64.03
2018-12-26T01:08:28.176Z,58.83
2018-12-26T01:10:55.692Z,58.53
2018-12-26T01:13:23.174Z,50.90
2018-12-26T01:15:50.646Z,49.40
2018-12-26T01:18:18.190Z,51.77
2018-12-26T01:20:45.657Z,43.57
2018-12-26T01:23:13.201Z,42.40
2018-12-26T01:25:40.769Z,44.83
2018-12-26T01:28:08.227Z,44.03
2018-12-26T01:30:35.731Z,42.40
2018-12-26T01:33:03.294Z,41.90
2018-12-26T01:35:30.864Z,39.03
2018-12-26T01:37:58.399Z,37.23
2018-12-26T01:40:25.910Z,39.30
2018-12-26T01:42:53.413Z,40.43
2018-12-26T01:45:20.959Z,44.53
2018-12-26T01:47:48.475Z,43.40
2018-12-26T01:50:15.983Z,34.03
2018-12-26T01:52:43.449Z,37.80
2018-12-26T01:55:10.982Z,38.87
2018-12-26T01:57:38.464Z,32.57
2018-12-26T02:00:06.093Z,38.23
2018-12-26T02:02:33.560Z,39.90
2018-12-26T02:05:01.062Z,38.10
2018-12-26T02:07:28.593Z,36.30
2018-12-26T02:09:56.083Z,36.20
2018-12-26T02:12:26.827Z,34.90
2018-12-26T02:14:54.495Z,33.60
2018-12-26T02:17:21.991Z,47.23
2018-12-26T02:19:49.527Z,55.87
2018-12-26T02:22:16.991Z,44.27
2018-12-26T02:24:44.496Z,44.50
2018-12-26T02:27:12.024Z,60.03
2018-12-26T02:29:39.504Z,45.30
2018-12-26T02:32:07.041Z,41.97
2018-12-26T02:34:34.983Z,41.93
2018-12-26T02:37:02.471Z,42.17
2018-12-26T02:39:29.943Z,43.00
2018-12-26T02:41:57.775Z,41.10
2018-12-26T02:44:25.303Z,51.13
2018-12-26T02:46:52.798Z,49.33
2018-12-26T02:49:20.342Z,52.63
2018-12-26T02:51:47.902Z,46.50
2018-12-26T02:54:15.402Z,42.03
2018-12-26T02:56:47.782Z,35.73
2018-12-26T02:59:12.192Z,35.63
2018-12-26T03:01:39.662Z,45.80
2018-12-26T03:04:07.144Z,50.00
2018-12-26T03:06:35.594Z,49.20
2018-12-26T03:09:06.249Z,55.43
2018-12-26T03:11:34.054Z,52.10
2018-12-26T03:14:43.301Z,77.23
2018-12-26T03:17:10.973Z,68.93
2018-12-26T03:19:38.704Z,69.73
2018-12-26T03:22:06.253Z,83.63
2018-12-26T03:24:33.934Z,69.17
2018-12-26T03:27:01.741Z,76.87
2018-12-26T03:29:29.206Z,68.97
2018-12-26T03:31:56.889Z,85.27
2018-12-26T03:34:24.635Z,74.37
2018-12-26T03:36:53.930Z,70.20
2018-12-26T03:39:21.774Z,69.43
2018-12-26T03:41:49.390Z,67.23
2018-12-26T03:44:16.872Z,59.13
2018-12-26T03:46:45.647Z,47.43
2018-12-26T03:49:13.343Z,50.13
2018-12-26T03:51:41.018Z,44.93
2018-12-26T03:54:08.483Z,41.77
2018-12-26T03:56:36.521Z,52.03
2018-12-26T03:59:04.117Z,44.20
2018-12-26T04:01:31.834Z,44.23
2018-12-26T04:03:59.568Z,45.70
2018-12-26T04:06:27.081Z,43.87
2018-12-26T04:08:54.943Z,47.50
2018-12-26T04:11:22.570Z,41.87
2018-12-26T04:13:50.042Z,52.57
2018-12-26T04:16:17.540Z,46.80
2018-12-26T04:18:45.382Z,40.23
2018-12-26T04:21:12.951Z,42.00
2018-12-26T04:23:41.123Z,44.10
2018-12-26T04:26:08.910Z,41.53
2018-12-26T04:28:36.545Z,42.33
2018-12-26T04:31:04.309Z,45.10
2018-12-26T04:33:31.800Z,52.53
2018-12-26T04:35:59.431Z,74.60
2018-12-26T04:38:27.188Z,78.47
2018-12-26T04:40:54.661Z,80.63
2018-12-26T04:43:24.022Z,69.50
2018-12-26T04:45:51.433Z,61.90
2018-12-26T04:48:19.125Z,54.17
2018-12-26T04:50:46.790Z,61.20
2018-12-26T04:53:15.707Z,57.63
2018-12-26T04:55:44.634Z,58.60
2018-12-26T04:58:12.588Z,47.63
2018-12-26T05:00:42.128Z,46.10
2018-12-26T05:03:12.371Z,41.23
2018-12-26T05:05:39.933Z,45.83
2018-12-26T05:08:27.129Z,44.57
2018-12-26T05:10:54.716Z,38.77
2018-12-26T05:13:23.757Z,39.77
2018-12-26T05:15:51.318Z,41.37
2018-12-26T05:18:18.896Z,42.07
2018-12-26T05:20:46.645Z,40.37
2018-12-26T05:23:14.100Z,40.60
2018-12-26T05:25:41.594Z,36.93
2018-12-26T05:28:09.263Z,39.80
2018-12-26T05:30:36.721Z,40.47
2018-12-26T05:33:04.410Z,38.70
2018-12-26T05:35:31.864Z,42.13
2018-12-26T05:37:59.340Z,44.63
2018-12-26T05:40:26.970Z,44.43
2018-12-26T05:42:55.332Z,44.00
2018-12-26T05:45:22.829Z,43.00
2018-12-26T05:47:50.310Z,45.13
2018-12-26T05:50:17.920Z,44.43
2018-12-26T05:52:45.526Z,49.57
2018-12-26T05:55:13.042Z,50.77
2018-12-26T05:57:42.993Z,57.27
2018-12-26T06:00:10.276Z,48.90
2018-12-26T06:02:37.859Z,50.97
2018-12-26T06:05:05.359Z,50.50
2018-12-26T06:07:32.877Z,45.30
2018-12-26T06:10:00.417Z,46.57
2018-12-26T06:12:27.949Z,40.07
2018-12-26T06:14:55.521Z,46.50
2018-12-26T06:17:23.223Z,50.10
2018-12-26T06:19:50.703Z,43.90
2018-12-26T06:22:18.315Z,43.57
2018-12-26T06:24:48.885Z,41.27
2018-12-26T06:27:16.594Z,45.20
2018-12-26T06:29:44.057Z,40.20
2018-12-26T06:32:11.741Z,38.83
2018-12-26T06:34:39.368Z,37.20
2018-12-26T06:37:07.033Z,42.00
2018-12-26T06:39:34.600Z,50.17
2018-12-26T06:42:02.113Z,54.83
2018-12-26T06:44:29.644Z,60.10
2018-12-26T06:46:57.165Z,65.87
2018-12-26T06:49:24.733Z,66.97
2018-12-26T06:51:52.295Z,74.17
2018-12-26T06:54:19.856Z,77.37
2018-12-26T06:56:47.373Z,63.60
2018-12-26T06:59:14.917Z,63.53
2018-12-26T07:01:42.761Z,67.83
2018-12-26T07:04:10.253Z,62.03
2018-12-26T07:06:37.816Z,61.17
2018-12-26T07:09:05.903Z,58.53
2018-12-26T07:11:33.372Z,40.43
2018-12-26T07:14:00.880Z,46.33
2018-12-26T07:16:28.480Z,48.40
2018-12-26T07:18:56.010Z,45.17
2018-12-26T07:21:23.709Z,44.60
2018-12-26T07:23:51.199Z,40.20
2018-12-26T07:26:18.801Z,52.87
2018-12-26T07:28:46.395Z,45.27
2018-12-26T07:31:13.875Z,43.63
2018-12-26T07:33:41.585Z,49.20
2018-12-26T07:36:09.072Z,55.37
2018-12-26T07:38:36.598Z,62.03
2018-12-26T07:41:04.134Z,78.30
2018-12-26T07:43:31.636Z,73.07
2018-12-26T07:45:59.222Z,107.37
2018-12-26T07:48:28.942Z,105.33
2018-12-26T07:50:56.089Z,86.80
2018-12-26T07:53:23.663Z,89.10
2018-12-26T07:55:51.270Z,105.63
2018-12-26T07:58:19.037Z,145.20
2018-12-26T08:00:46.563Z,163.93
2018-12-26T08:03:14.175Z,128.30
2018-12-26T08:05:41.850Z,133.97
2018-12-26T08:08:09.376Z,174.37
2018-12-26T08:10:36.976Z,177.67
2018-12-26T08:13:04.523Z,187.83
2018-12-26T08:15:32.185Z,255.23
2018-12-26T08:17:59.680Z,239.13
2018-12-26T08:20:27.136Z,309.37
2018-12-26T08:22:54.670Z,202.97
2018-12-26T08:25:22.377Z,197.47
2018-12-26T08:27:49.962Z,212.47
2018-12-26T08:30:17.452Z,230.97
2018-12-26T08:32:45.317Z,214.60
2018-12-26T08:35:13.767Z,210.87
2018-12-26T08:37:41.463Z,201.50
2018-12-26T08:40:09.275Z,226.70
2018-12-26T08:42:36.785Z,212.37
2018-12-26T08:45:04.700Z,208.43
2018-12-26T08:47:32.275Z,198.63
2018-12-26T08:49:59.860Z,252.27
2018-12-26T08:52:27.716Z,201.23
2018-12-26T08:54:55.362Z,216.27
2018-12-26T08:57:22.949Z,165.83
2018-12-26T08:59:50.628Z,174.53
2018-12-26T09:02:18.334Z,205.97
2018-12-26T09:04:46.177Z,188.57
2018-12-26T09:07:19.559Z,200.33
2018-12-26T09:09:49.322Z,198.43
2018-12-26T09:12:17.049Z,203.97
2018-12-26T09:14:44.635Z,161.10
2018-12-26T09:17:12.312Z,147.83
2018-12-26T09:19:39.939Z,127.17
2018-12-26T09:22:08.802Z,127.07
2018-12-26T09:24:36.633Z,145.33
2018-12-26T09:27:09.968Z,94.80
2018-12-26T09:29:37.812Z,108.83
2018-12-26T09:32:05.717Z,120.30
2018-12-26T09:34:33.420Z,97.50
2018-12-26T09:37:01.123Z,119.83
2018-12-26T09:39:28.880Z,94.57
2018-12-26T09:41:56.546Z,88.47
2018-12-26T09:44:24.378Z,116.43
2018-12-26T09:46:52.062Z,76.57
2018-12-26T09:49:19.644Z,83.87
2018-12-26T09:51:47.288Z,82.87
2018-12-26T09:54:15.004Z,77.30
2018-12-26T09:56:42.767Z,83.53
2018-12-26T09:59:10.578Z,79.37
2018-12-26T10:01:38.064Z,71.10
2018-12-26T10:04:05.968Z,74.27
2018-12-26T10:06:33.515Z,65.60
2018-12-26T10:09:01.036Z,58.80
2018-12-26T10:11:28.528Z,68.37
2018-12-26T10:13:56.129Z,74.10
2018-12-26T10:16:23.790Z,71.23
2018-12-26T10:18:51.395Z,55.17
2018-12-26T10:21:18.841Z,59.17
2018-12-26T10:23:54.592Z,69.97
2018-12-26T10:26:22.148Z,78.37
2018-12-26T10:28:49.650Z,81.90
2018-12-26T10:31:17.208Z,77.73
2018-12-26T10:33:44.707Z,82.93
2018-12-26T10:36:12.337Z,86.57
2018-12-26T10:38:39.823Z,81.20
2018-12-26T10:41:07.330Z,84.53
2018-12-26T10:43:34.808Z,82.60
2018-12-26T10:46:02.512Z,73.93
2018-12-26T10:48:30.045Z,63.53
2018-12-26T10:50:57.517Z,55.13
2018-12-26T10:53:25.007Z,54.87
2018-12-26T10:55:52.510Z,56.67
2018-12-26T10:58:21.810Z,49.93
2018-12-26T11:00:50.695Z,48.07
2018-12-26T11:03:18.493Z,65.80
2018-12-26T11:05:45.990Z,74.33
2018-12-26T11:08:15.281Z,70.97
2018-12-26T11:10:42.858Z,61.73
2018-12-26T11:13:11.975Z,62.50
2018-12-26T11:15:46.801Z,57.20
2018-12-26T11:18:15.530Z,65.30
2018-12-26T11:20:43.053Z,50.87
2018-12-26T11:23:10.614Z,45.63
2018-12-26T11:25:38.322Z,46.53
2018-12-26T11:28:05.820Z,50.33
2018-12-26T11:30:35.328Z,43.37
2018-12-26T11:33:02.745Z,45.20
2018-12-26T11:35:30.965Z,44.67
2018-12-26T11:37:58.822Z,46.10
2018-12-26T11:40:26.860Z,49.93
2018-12-26T11:42:54.831Z,48.00
2018-12-26T11:45:22.332Z,45.77
2018-12-26T11:47:50.071Z,42.33
2018-12-26T11:50:17.830Z,49.90
2018-12-26T11:52:48.320Z,52.43
2018-12-26T11:55:15.817Z,48.93
2018-12-26T11:57:45.124Z,54.40
2018-12-26T12:00:14.328Z,51.87
2018-12-26T12:02:42.023Z,66.60
2018-12-26T12:05:09.956Z,51.70
2018-12-26T12:07:37.657Z,55.00
2018-12-26T12:10:10.360Z,43.70
2018-12-26T12:12:40.652Z,44.93
2018-12-26T12:15:11.538Z,52.00
2018-12-26T12:17:44.935Z,47.03
2018-12-26T12:20:12.588Z,44.47
2018-12-26T12:22:40.350Z,52.77
2018-12-26T12:25:11.252Z,46.20
2018-12-26T12:27:47.778Z,51.37
2018-12-26T12:30:16.735Z,53.83
2018-12-26T12:32:44.271Z,53.93
2018-12-26T12:35:12.136Z,46.23
2018-12-26T12:37:40.182Z,44.60
2018-12-26T12:40:27.290Z,43.57
2018-12-26T12:42:55.121Z,43.30
2018-12-26T12:45:22.750Z,48.97
2018-12-26T12:47:50.781Z,46.13
2018-12-26T12:50:18.512Z,40.70
2018-12-26T12:52:46.516Z,37.93
2018-12-26T12:55:14.062Z,37.90
2018-12-26T12:57:41.929Z,35.20
2018-12-26T13:00:11.422Z,34.60
2018-12-26T13:02:47.030Z,34.67
2018-12-26T13:05:15.965Z,35.73
2018-12-26T13:07:43.608Z,35.93
2018-12-26T13:10:11.352Z,35.70
2018-12-26T13:12:41.313Z,33.77
2018-12-26T13:15:09.258Z,40.20
2018-12-26T13:17:37.406Z,38.23
2018-12-26T13:20:06.975Z,32.97
2018-12-26T13:22:34.648Z,31.43
2018-12-26T13:25:06.281Z,35.50
2018-12-26T13:27:38.694Z,30.73
2018-12-26T13:30:07.967Z,31.80
2018-12-26T13:32:39.914Z,33.97
2018-12-26T13:35:07.395Z,30.77
2018-12-26T13:37:41.525Z,30.60
2018-12-26T13:40:09.266Z,36.10
2018-12-26T13:42:37.298Z,32.30
2018-12-26T13:45:07.157Z,36.27
2018-12-26T13:47:36.776Z,34.43
2018-12-26T13:50:05.081Z,37.77
2018-12-26T13:52:34.697Z,37.70
2018-12-26T13:55:05.145Z,39.00
2018-12-26T13:57:36.894Z,34.10
2018-12-26T14:00:08.889Z,32.27
2018-12-26T14:02:38.752Z,35.53
2018-12-26T14:05:09.793Z,36.83
2018-12-26T14:07:37.443Z,36.67
2018-12-26T14:10:27.251Z,36.37
2018-12-26T14:12:56.475Z,39.13
2018-12-26T14:15:29.044Z,40.73
2018-12-26T14:17:56.584Z,36.53
2018-12-26T14:20:26.839Z,39.87
2018-12-26T14:22:58.499Z,43.33
2018-12-26T14:25:26.422Z,47.87
2018-12-26T14:27:54.444Z,45.17
2018-12-26T14:30:22.293Z,44.70
2018-12-26T14:32:51.877Z,55.00
2018-12-26T14:35:19.446Z,53.17
2018-12-26T14:37:47.142Z,50.17
2018-12-26T14:40:15.077Z,56.33
2018-12-26T14:42:42.665Z,48.37
2018-12-26T14:45:10.498Z,52.03
2018-12-26T14:47:38.174Z,49.83
2018-12-26T14:50:06.501Z,50.70
2018-12-26T14:52:34.145Z,49.57
2018-12-26T14:55:03.719Z,52.17
2018-12-26T14:57:31.725Z,58.57
2018-12-26T14:59:59.346Z,50.80
2018-12-26T15:02:27.104Z,52.10
2018-12-26T15:04:55.209Z,48.80
2018-12-26T15:07:22.810Z,44.30
2018-12-26T15:09:50.621Z,45.73
2018-12-26T15:12:18.400Z,53.87
2018-12-26T15:14:45.902Z,49.53
2018-12-26T15:17:13.522Z,66.60
2018-12-26T15:19:41.286Z,54.47
2018-12-26T15:22:09.143Z,51.83
2018-12-26T15:24:39.613Z,54.00
2018-12-26T15:27:07.244Z,51.30
2018-12-26T15:29:35.214Z,44.20
2018-12-26T15:32:02.806Z,53.97
2018-12-26T15:34:30.540Z,52.77
2018-12-26T15:36:58.068Z,45.70
2018-12-26T15:39:25.536Z,50.87
2018-12-26T15:41:53.092Z,44.17
2018-12-26T15:44:20.585Z,53.07
2018-12-26T15:46:48.069Z,50.83
2018-12-26T15:49:16.146Z,54.60
2018-12-26T15:51:43.732Z,48.70
2018-12-26T15:54:11.238Z,45.73
2018-12-26T15:56:38.786Z,47.23
2018-12-26T15:59:06.448Z,60.07
2018-12-26T16:01:34.368Z,48.83
2018-12-26T16:04:01.945Z,44.60
2018-12-26T16:06:30.125Z,43.13
2018-12-26T16:08:58.095Z,45.63
2018-12-26T16:11:25.703Z,50.10
2018-12-26T16:13:53.319Z,49.40
2018-12-26T16:16:20.919Z,45.13
2018-12-26T16:18:48.580Z,48.63
2018-12-26T16:21:16.406Z,49.80
2018-12-26T16:23:44.938Z,46.20
2018-12-26T16:26:12.472Z,49.43
2018-12-26T16:28:40.079Z,55.90
2018-12-26T16:31:07.557Z,48.30
2018-12-26T16:33:37.881Z,55.70
2018-12-26T16:36:05.361Z,56.57
2018-12-26T16:38:32.912Z,58.63
2018-12-26T16:41:00.393Z,55.70
2018-12-26T16:43:27.859Z,60.07
2018-12-26T16:45:55.368Z,64.70
2018-12-26T16:48:45.677Z,55.90
2018-12-26T16:51:16.941Z,52.60
2018-12-26T16:53:44.453Z,68.27
2018-12-26T16:56:11.936Z,67.83
2018-12-26T16:58:39.478Z,60.13
2018-12-26T17:01:06.986Z,61.90
2018-12-26T17:03:36.939Z,63.30
2018-12-26T17:06:04.468Z,70.83
2018-12-26T17:08:31.959Z,62.43
2018-12-26T17:10:59.551Z,63.33
2018-12-26T17:13:27.420Z,55.03
2018-12-26T17:15:54.906Z,62.67
2018-12-26T17:18:22.383Z,63.33
2018-12-26T17:20:49.954Z,56.93
2018-12-26T17:23:17.453Z,56.87
2018-12-26T17:25:44.960Z,69.70
2018-12-26T17:28:12.455Z,80.67
2018-12-26T17:30:39.965Z,80.10
2018-12-26T17:33:07.490Z,61.53
2018-12-26T17:35:37.230Z,75.83
2018-12-26T17:38:04.743Z,65.83
2018-12-26T17:40:32.205Z,66.47
2018-12-26T17:43:00.744Z,70.10
2018-12-26T17:45:28.217Z,69.07
2018-12-26T17:48:00.818Z,68.47
2018-12-26T17:50:57.208Z,73.20
2018-12-26T17:53:55.814Z,63.43
2018-12-26T17:56:31.841Z,70.63
2018-12-26T17:59:23.799Z,64.43
2018-12-26T18:02:03.116Z,53.27
2018-12-26T18:04:30.702Z,67.53
2018-12-26T18:07:00.234Z,65.00
2018-12-26T18:09:29.775Z,68.20
2018-12-26T18:12:11.223Z,63.50
2018-12-26T18:14:28.875Z,59.47
2018-12-26T18:16:58.752Z,64.23
2018-12-26T18:19:26.554Z,64.57
2018-12-26T18:21:55.216Z,66.67
2018-12-26T18:24:22.746Z,71.83
2018-12-26T18:26:52.390Z,60.60
2018-12-26T18:29:21.174Z,61.97
2018-12-26T18:31:48.658Z,58.53
2018-12-26T18:34:18.443Z,67.73
2018-12-26T18:36:47.970Z,56.10
2018-12-26T18:39:15.551Z,68.53
2018-12-26T18:41:43.114Z,64.40
2018-12-26T18:44:10.688Z,68.67
2018-12-26T18:46:41.271Z,64.07
2018-12-26T18:49:11.585Z,62.07
2018-12-26T18:51:41.636Z,64.67
2018-12-26T18:54:09.067Z,66.47
2018-12-26T18:56:38.599Z,61.90
2018-12-26T18:59:06.425Z,69.83
2018-12-26T19:01:35.974Z,65.70
2018-12-26T19:04:03.480Z,62.87
2018-12-26T19:06:30.996Z,63.90
2018-12-26T19:09:06.112Z,63.47
2018-12-26T19:11:33.654Z,69.60
2018-12-26T19:14:03.195Z,67.53
2018-12-26T19:16:32.880Z,50.77
2018-12-26T19:19:00.683Z,81.83
2018-12-26T19:21:30.533Z,56.33
2018-12-26T19:23:58.087Z,83.37
2018-12-26T19:26:29.624Z,79.20
2018-12-26T19:28:57.212Z,71.43
2018-12-26T19:31:24.759Z,73.70
2018-12-26T19:33:54.399Z,75.67
2018-12-26T19:36:22.408Z,58.77
2018-12-26T19:38:49.947Z,72.60
2018-12-26T19:41:20.757Z,75.60
2018-12-26T19:43:48.490Z,75.77
2018-12-26T19:46:16.064Z,81.50
2018-12-26T19:48:43.688Z,76.83
2018-12-26T19:51:11.196Z,79.47
2018-12-26T19:53:58.457Z,73.33
2018-12-26T19:56:26.438Z,74.63
2018-12-26T19:58:54.074Z,68.97
2018-12-26T20:01:21.612Z,67.63
2018-12-26T20:03:49.180Z,76.57
2018-12-26T20:06:16.743Z,70.93
2018-12-26T20:08:47.524Z,84.97
2018-12-26T20:11:15.317Z,77.20
2018-12-26T20:13:42.905Z,76.23
2018-12-26T20:16:10.475Z,73.00
2018-12-26T20:18:38.101Z,75.70
2018-12-26T20:21:05.894Z,75.33
2018-12-26T20:23:33.464Z,67.30
2018-12-26T20:26:01.024Z,71.63
2018-12-26T20:28:28.556Z,70.23
2018-12-26T20:30:56.624Z,74.97
2018-12-26T20:33:24.137Z,77.87
2018-12-26T20:35:52.588Z,73.57
2018-12-26T20:38:20.576Z,69.87
2018-12-26T20:40:48.077Z,72.40
2018-12-26T20:43:15.639Z,75.13
2018-12-26T20:45:43.387Z,74.27
2018-12-26T20:48:10.903Z,75.83
2018-12-26T20:50:38.692Z,67.30
2018-12-26T20:53:06.232Z,69.33
2018-12-26T20:55:33.847Z,74.47
2018-12-26T20:58:01.448Z,78.60
2018-12-26T21:00:28.965Z,73.40
2018-12-26T21:02:56.481Z,71.73
2018-12-26T21:05:24.117Z,78.13
2018-12-26T21:08:02.336Z,62.83
2018-12-26T21:10:30.062Z,76.73
2018-12-26T21:12:57.685Z,69.40
2018-12-26T21:15:25.178Z,79.17
2018-12-26T21:17:52.683Z,67.33
2018-12-26T21:20:20.302Z,74.03
2018-12-26T21:22:47.960Z,70.67
2018-12-26T21:25:15.543Z,66.67
2018-12-26T21:27:43.001Z,63.27
2018-12-26T21:30:13.342Z,58.97
2018-12-26T21:32:41.203Z,72.83
2018-12-26T21:35:08.778Z,70.97
2018-12-26T21:37:36.340Z,71.17
2018-12-26T21:40:04.590Z,66.30
2018-12-26T21:42:32.202Z,72.33
2018-12-26T21:44:59.843Z,74.77
2018-12-26T21:47:27.458Z,66.70
2018-12-26T21:49:55.324Z,59.60
2018-12-26T21:52:22.847Z,67.23
2018-12-26T21:54:50.413Z,65.73
2018-12-26T21:57:17.941Z,64.80
2018-12-26T21:59:45.627Z,63.33
2018-12-26T22:02:22.196Z,56.63
2018-12-26T22:04:43.663Z,59.53
2018-12-26T22:07:13.661Z,60.77
2018-12-26T22:09:41.515Z,52.20
2018-12-26T22:12:09.632Z,93.30
2018-12-26T22:14:40.942Z,62.40
2018-12-26T22:17:09.596Z,48.73
2018-12-26T22:19:37.576Z,53.73
2018-12-26T22:22:05.342Z,56.00
2018-12-26T22:24:33.160Z,56.57
2018-12-26T22:27:01.099Z,63.47
2018-12-26T22:29:28.649Z,57.83
2018-12-26T22:31:58.372Z,62.33
2018-12-26T22:34:26.334Z,57.73
2018-12-26T22:36:56.061Z,59.30
2018-12-26T22:39:23.847Z,51.97
2018-12-26T22:41:51.410Z,60.03
2018-12-26T22:44:19.103Z,64.57
2018-12-26T22:46:46.799Z,56.33
2018-12-26T22:49:14.628Z,63.07
2018-12-26T22:51:44.060Z,65.23
2018-12-26T22:54:11.470Z,58.33
2018-12-26T22:56:39.049Z,56.13
2018-12-26T22:59:06.609Z,64.20
2018-12-26T23:01:34.230Z,61.07
2018-12-26T23:04:02.059Z,61.40
2018-12-26T23:06:29.805Z,59.37
2018-12-26T23:08:57.477Z,59.40
2018-12-26T23:11:25.176Z,58.87
2018-12-26T23:13:52.855Z,64.37
2018-12-26T23:16:20.613Z,70.60
2018-12-26T23:18:49.282Z,64.73
2018-12-26T23:21:16.798Z,63.97
2018-12-26T23:23:44.432Z,57.80
2018-12-26T23:26:12.020Z,55.07
2018-12-26T23:28:39.756Z,55.27
2018-12-26T23:31:07.324Z,61.43
2018-12-26T23:33:34.816Z,64.97
2018-12-26T23:36:02.499Z,67.53
2018-12-26T23:38:29.981Z,63.07
2018-12-26T23:40:57.907Z,69.80
2018-12-26T23:43:25.536Z,65.30
2018-12-26T23:45:55.332Z,67.10
2018-12-26T23:48:23.126Z,73.07
2018-12-26T23:50:50.869Z,72.33
2018-12-26T23:53:19.749Z,64.07
2018-12-26T23:55:47.231Z,67.13
2018-12-26T23:58:15.192Z,62.40
